Time;durP1;ratioP1;P1;durP2;ratioP2;P2;SDS_P1;SDS_P2;PMS_P1;PMS_P2;Temp;Humidity;BMP_temperature;BMP_pressure;BME280_temperature;BME280_humidity;BME280_pressure;Samples;Min_cycle;Max_cycle;Signal;HPM_P1;HPM_P2
2023/04/27 00:01:38;;;;;;;16.60;7.60;;;;;;;7.64;49.73;99153.27;223548;184;147217;-68
2023/04/27 00:06:42;;;;;;;16.90;7.90;;;;;;;7.62;49.78;99153.38;223391;184;138465;-68
2023/04/27 00:11:46;;;;;;;21.60;8.20;;;;;;;7.62;49.93;99152.15;223497;184;136562;-68
2023/04/27 00:16:49;;;;;;;18.60;8.10;;;;;;;7.65;49.85;99152.52;223491;184;147560;-68
2023/04/27 00:21:52;;;;;;;20.20;9.00;;;;;;;7.61;49.90;99150.43;223563;183;138807;-68
2023/04/27 00:26:56;;;;;;;28.30;9.80;;;;;;;7.57;50.08;99152.20;223445;185;136633;-68
2023/04/27 00:32:00;;;;;;;21.80;8.70;;;;;;;7.54;50.22;99153.74;223434;184;147205;-68
2023/04/27 00:37:04;;;;;;;22.00;9.60;;;;;;;7.52;50.26;99152.61;223512;184;138655;-68
2023/04/27 00:42:12;;;;;;;22.30;9.40;;;;;;;7.52;50.58;99148.20;223484;184;137734;-68
2023/04/27 00:47:16;;;;;;;19.70;9.50;;;;;;;7.53;50.52;99151.48;223449;184;147930;-68
2023/04/27 00:52:20;;;;;;;18.30;9.40;;;;;;;7.55;50.63;99144.35;223503;183;139017;-68
2023/04/27 00:57:23;;;;;;;20.10;9.50;;;;;;;7.55;50.71;99147.88;223517;184;136796;-68
2023/04/27 01:02:28;;;;;;;19.10;9.80;;;;;;;7.55;50.72;99148.60;223585;184;146963;-68
2023/04/27 01:07:32;;;;;;;20.70;9.80;;;;;;;7.54;50.72;99152.01;223584;184;138191;-68
2023/04/27 01:12:36;;;;;;;23.80;9.30;;;;;;;7.51;50.71;99156.56;223590;184;137050;-68
2023/04/27 01:17:41;;;;;;;24.10;9.20;;;;;;;7.49;50.91;99157.85;223507;184;147800;-70
2023/04/27 01:22:44;;;;;;;18.10;9.20;;;;;;;7.53;50.88;99164.73;223328;184;139683;-68
2023/04/27 01:27:48;;;;;;;21.10;9.80;;;;;;;7.59;50.83;99166.56;223628;184;137377;-67
2023/04/27 01:32:51;;;;;;;19.30;8.90;;;;;;;7.59;50.82;99175.58;223589;184;146893;-68
2023/04/27 01:37:56;;;;;;;22.60;9.40;;;;;;;7.57;50.74;99173.72;223466;184;138461;-68
2023/04/27 01:43:04;;;;;;;23.90;9.40;;;;;;;7.59;50.86;99167.30;223585;184;137014;-68
2023/04/27 01:48:10;;;;;;;23.40;10.20;;;;;;;7.51;51.05;99171.03;223498;184;147829;-68
2023/04/27 01:53:13;;;;;;;18.90;9.20;;;;;;;7.44;51.32;99177.88;223560;184;139224;-70
2023/04/27 01:58:17;;;;;;;19.60;9.50;;;;;;;7.40;51.47;99176.83;223499;184;137171;-71
2023/04/27 02:03:20;;;;;;;20.60;9.10;;;;;;;7.38;51.67;99179.58;223428;184;147301;-70
2023/04/27 02:08:25;;;;;;;23.30;9.10;;;;;;;7.34;51.73;99182.05;223484;184;138692;-70
2023/04/27 02:13:29;;;;;;;20.70;9.50;;;;;;;7.30;51.97;99179.60;223634;184;137100;-70
2023/04/27 02:18:32;;;;;;;21.80;9.00;;;;;;;7.26;52.22;99177.64;223606;184;147155;-70
2023/04/27 02:23:35;;;;;;;21.60;8.90;;;;;;;7.24;52.42;99176.69;223535;184;139636;-70
2023/04/27 02:28:38;;;;;;;21.30;9.40;;;;;;;7.21;52.47;99173.69;223481;184;136724;-70
2023/04/27 02:33:42;;;;;;;20.40;9.10;;;;;;;7.17;52.71;99175.95;223553;184;147343;-70
2023/04/27 02:38:45;;;;;;;20.70;8.90;;;;;;;7.14;52.81;99180.70;223384;184;139332;-68
2023/04/27 02:43:50;;;;;;;23.80;11.90;;;;;;;7.17;53.32;99183.74;223446;184;136926;-67
2023/04/27 02:48:54;;;;;;;20.40;9.20;;;;;;;7.20;53.77;99180.27;223563;184;147403;-68
2023/04/27 02:53:58;;;;;;;24.30;9.90;;;;;;;7.15;53.67;99186.13;223422;184;139394;-67
2023/04/27 02:59:02;;;;;;;22.40;11.20;;;;;;;7.09;53.79;99182.67;223432;183;137060;-67
2023/04/27 03:04:06;;;;;;;31.70;16.60;;;;;;;7.03;54.33;99184.86;223433;183;146937;-67
2023/04/27 03:09:12;;;;;;;25.60;12.10;;;;;;;7.04;55.03;99187.30;223438;184;138669;-67
2023/04/27 03:14:16;;;;;;;27.80;12.30;;;;;;;6.99;54.77;99192.11;223542;183;137311;-68
2023/04/27 03:19:20;;;;;;;24.40;12.50;;;;;;;6.94;54.93;99197.10;223501;183;147935;-69
2023/04/27 03:24:24;;;;;;;26.90;13.10;;;;;;;6.90;55.13;99198.36;223404;184;138821;-69
2023/04/27 03:29:28;;;;;;;76.50;46.20;;;;;;;6.86;55.72;99204.34;223486;184;136938;-69
2023/04/27 03:34:31;;;;;;;26.00;13.60;;;;;;;6.92;55.62;99210.27;223485;184;147193;-70
2023/04/27 03:39:34;;;;;;;27.00;13.90;;;;;;;6.88;55.48;99213.59;223474;184;138880;-67
2023/04/27 03:44:38;;;;;;;31.40;14.40;;;;;;;6.91;55.38;99220.34;223600;184;137396;-68
2023/04/27 03:49:41;;;;;;;32.70;13.90;;;;;;;6.93;55.42;99221.86;222951;183;147866;-69
2023/04/27 03:54:44;;;;;;;33.70;14.10;;;;;;;6.89;55.46;99223.79;223572;184;139802;-70
2023/04/27 03:59:49;;;;;;;30.50;14.00;;;;;;;6.82;55.70;99231.48;223535;184;136850;-70
2023/04/27 04:04:52;;;;;;;26.90;13.50;;;;;;;6.76;56.02;99238.62;223465;184;147419;-70
2023/04/27 04:09:55;;;;;;;28.40;13.70;;;;;;;6.76;56.20;99237.95;223491;183;138953;-70
2023/04/27 04:14:58;;;;;;;28.50;12.80;;;;;;;6.79;56.45;99245.76;223553;180;137886;-70
2023/04/27 04:20:08;;;;;;;27.60;13.10;;;;;;;6.84;56.32;99249.23;223499;184;148270;-69
2023/04/27 04:25:11;;;;;;;33.90;13.40;;;;;;;6.96;56.06;99252.40;223441;184;139060;-69
2023/04/27 04:30:16;;;;;;;27.40;13.10;;;;;;;7.10;55.68;99252.87;223583;184;137127;-70
2023/04/27 04:35:20;;;;;;;29.30;13.40;;;;;;;7.22;55.53;99254.06;223525;184;147915;-70
2023/04/27 04:40:24;;;;;;;26.80;13.10;;;;;;;7.32;54.99;99255.56;223604;184;138512;-69
2023/04/27 04:45:28;;;;;;;25.90;12.50;;;;;;;7.34;54.84;99255.30;223463;184;136788;-70
2023/04/27 04:50:32;;;;;;;25.10;12.60;;;;;;;7.38;54.80;99257.05;222940;184;148573;-67
2023/04/27 04:55:36;;;;;;;24.40;12.40;;;;;;;7.45;54.38;99259.77;223545;184;138990;-67
2023/04/27 05:00:40;;;;;;;24.70;11.30;;;;;;;7.53;54.18;99258.99;223517;184;137054;-67
2023/04/27 05:05:43;;;;;;;18.90;10.10;;;;;;;7.61;54.01;99263.23;223609;184;146910;-68
2023/04/27 05:10:57;;;;;;;22.10;10.90;;;;;;;7.64;53.93;99262.02;223552;184;138106;-68
2023/04/27 05:16:06;;;;;;;23.30;11.20;;;;;;;7.72;53.53;99267.50;223462;184;137215;-68
2023/04/27 05:21:19;;;;;;;;;;;;;;;7.77;53.34;99272.01;223559;183;147517;-67
2023/04/27 05:26:22;;;;;;;24.10;11.10;;;;;;;7.81;53.30;99277.11;223096;184;139291;-69
2023/04/27 05:31:25;;;;;;;23.10;11.90;;;;;;;7.89;53.03;99281.53;223727;184;136744;-68
2023/04/27 05:36:29;;;;;;;23.10;11.60;;;;;;;7.98;52.97;99284.48;223612;184;147022;-69
2023/04/27 05:41:33;;;;;;;21.70;11.50;;;;;;;8.09;53.04;99292.27;223573;184;139471;-69
2023/04/27 05:46:36;;;;;;;22.40;10.90;;;;;;;8.17;52.76;99293.48;223574;183;137284;-69
2023/04/27 05:51:40;;;;;;;21.90;10.90;;;;;;;8.24;52.41;99296.27;223628;183;146919;-69
2023/04/27 05:56:44;;;;;;;21.70;10.80;;;;;;;8.22;52.42;99298.67;223609;183;138781;-69
2023/04/27 06:01:47;;;;;;;27.60;11.90;;;;;;;8.28;52.40;99306.51;223563;183;137875;-69
2023/04/27 06:06:51;;;;;;;23.40;11.40;;;;;;;8.41;52.22;99304.69;223444;184;147061;-69
2023/04/27 06:11:54;;;;;;;22.20;10.60;;;;;;;8.51;52.15;99308.80;223463;183;139189;-69
2023/04/27 06:16:58;;;;;;;25.30;10.10;;;;;;;8.60;51.75;99312.08;223616;184;137547;-70
2023/04/27 06:22:02;;;;;;;17.60;9.50;;;;;;;8.63;51.48;99310.83;223480;183;149202;-70
2023/04/27 06:27:06;;;;;;;21.80;11.20;;;;;;;8.68;51.41;99309.00;223560;184;138719;-70
2023/04/27 06:32:09;;;;;;;21.30;10.90;;;;;;;8.77;51.47;99310.00;223605;184;136765;-70
2023/04/27 06:37:15;;;;;;;19.70;10.50;;;;;;;8.89;51.24;99314.35;223455;183;146962;-69
2023/04/27 06:42:19;;;;;;;19.90;9.10;;;;;;;8.94;51.09;99312.33;223495;184;139347;-70
2023/04/27 06:47:23;;;;;;;17.00;9.10;;;;;;;9.05;50.96;99316.53;223556;184;137527;-69
2023/04/27 06:52:26;;;;;;;19.50;9.80;;;;;;;9.09;50.47;99319.17;223463;184;147226;-69
2023/04/27 06:57:30;;;;;;;19.60;10.20;;;;;;;9.17;50.44;99324.41;223506;184;138709;-70
2023/04/27 07:02:33;;;;;;;21.10;9.30;;;;;;;9.32;50.07;99324.48;223583;183;137145;-70
2023/04/27 07:07:37;;;;;;;18.20;9.10;;;;;;;9.47;49.82;99323.20;223420;184;147507;-70
2023/04/27 07:12:41;;;;;;;18.00;8.80;;;;;;;9.63;49.46;99316.86;223426;184;138671;-70
2023/04/27 07:17:45;;;;;;;17.50;8.60;;;;;;;9.88;49.92;99316.05;223495;184;138418;-70
2023/04/27 07:22:48;;;;;;;8.90;4.80;;;;;;;10.06;48.02;99318.91;223470;184;148378;-70
2023/04/27 07:27:52;;;;;;;11.70;4.60;;;;;;;10.18;46.52;99316.63;223539;184;138891;-69
2023/04/27 07:32:56;;;;;;;11.70;5.90;;;;;;;10.35;46.43;99317.84;223537;184;137431;-70
2023/04/27 07:38:01;;;;;;;13.20;5.70;;;;;;;10.31;45.60;99321.13;223602;183;147272;-70
2023/04/27 07:43:05;;;;;;;14.20;5.20;;;;;;;10.26;45.23;99323.87;223377;184;138416;-69
2023/04/27 07:48:17;;;;;;;28.60;16.50;;;;;;;10.31;45.35;99332.28;223527;184;136947;-70
2023/04/27 07:53:21;;;;;;;12.90;6.50;;;;;;;10.39;45.59;99330.60;223402;184;148062;-70
2023/04/27 07:58:24;;;;;;;13.70;5.00;;;;;;;10.44;44.97;99327.10;223309;184;138831;-69
2023/04/27 08:03:28;;;;;;;13.20;4.50;;;;;;;10.57;44.33;99321.38;223532;184;136814;-69
2023/04/27 08:08:32;;;;;;;9.50;3.70;;;;;;;10.74;43.26;99315.95;223520;184;147502;-69
2023/04/27 08:13:35;;;;;;;11.90;4.00;;;;;;;10.93;42.62;99315.20;223444;184;138390;-69
2023/04/27 08:18:39;;;;;;;11.40;4.70;;;;;;;11.08;41.91;99316.48;223526;183;137305;-70
2023/04/27 08:23:42;;;;;;;9.20;3.60;;;;;;;11.12;41.20;99316.92;223464;184;147450;-70
2023/04/27 08:28:46;;;;;;;11.70;4.20;;;;;;;11.02;41.21;99321.77;223499;184;139348;-68
2023/04/27 08:33:51;;;;;;;10.60;3.90;;;;;;;11.02;40.57;99320.38;223485;184;137838;-69
2023/04/27 08:38:55;;;;;;;9.40;3.40;;;;;;;11.04;40.67;99323.96;223495;183;148220;-70
2023/04/27 08:43:58;;;;;;;11.80;3.80;;;;;;;11.05;40.58;99329.41;223498;184;138906;-69
2023/04/27 08:49:02;;;;;;;11.50;4.00;;;;;;;11.08;40.55;99334.38;223518;184;136893;-70
2023/04/27 08:54:06;;;;;;;9.30;3.70;;;;;;;11.01;40.63;99333.73;223466;184;147393;-69
2023/04/27 08:59:16;;;;;;;8.70;3.80;;;;;;;10.97;40.42;99332.90;223498;184;139021;-69
2023/04/27 09:04:20;;;;;;;10.00;3.80;;;;;;;10.90;40.50;99325.70;223510;184;138900;-67
2023/04/27 09:09:24;;;;;;;5.70;3.50;;;;;;;10.93;40.47;99325.36;223469;184;148064;-67
2023/04/27 09:14:29;;;;;;;6.60;3.10;;;;;;;10.95;40.55;99320.43;223440;184;138655;-68
2023/04/27 09:19:33;;;;;;;8.50;3.10;;;;;;;11.02;39.70;99317.86;223461;184;136664;-67
2023/04/27 09:24:37;;;;;;;6.50;2.80;;;;;;;11.11;38.50;99318.56;222909;183;148457;-69
2023/04/27 09:29:41;;;;;;;11.60;2.60;;;;;;;11.21;37.67;99315.33;223488;184;138657;-69
2023/04/27 09:34:45;;;;;;;12.20;3.10;;;;;;;11.36;37.09;99311.92;223532;181;137340;-68
2023/04/27 09:39:49;;;;;;;8.80;2.80;;;;;;;11.61;36.83;99311.09;223594;183;147372;-68
2023/04/27 09:44:53;;;;;;;7.70;3.30;;;;;;;11.89;37.51;99301.02;223500;184;139795;-69
2023/04/27 09:50:00;;;;;;;8.10;3.00;;;;;;;11.96;36.69;99304.30;223468;184;137159;-70
2023/04/27 09:55:09;;;;;;;5.00;2.60;;;;;;;11.82;36.28;99308.17;223542;184;146804;-69
2023/04/27 10:00:52;;;;;;;8.70;3.00;;;;;;;11.73;36.62;99310.52;223525;183;138473;-68
2023/04/27 10:06:16;;;;;;;9.40;3.40;;;;;;;11.66;36.71;99312.20;223291;184;137271;-68
2023/04/27 10:11:20;;;;;;;8.10;3.10;;;;;;;11.56;36.40;99315.83;223531;184;147245;-68
2023/04/27 10:16:24;;;;;;;14.40;4.10;;;;;;;11.46;37.03;99313.29;223403;184;138946;-68
2023/04/27 10:21:29;;;;;;;10.40;3.90;;;;;;;11.45;38.14;99318.67;223527;184;137218;-68
2023/04/27 10:26:33;;;;;;;7.90;3.30;;;;;;;11.43;38.57;99315.59;223502;184;147064;-68
2023/04/27 10:31:46;;;;;;;;;;;;;;;11.38;38.95;99320.52;223493;184;138463;-68
2023/04/27 10:37:07;;;;;;;8.60;3.60;;;;;;;11.35;39.06;99319.96;223661;184;131107;-68
2023/04/27 10:42:11;;;;;;;6.80;3.80;;;;;;;11.44;39.13;99314.30;223572;183;146983;-68
2023/04/27 10:47:16;;;;;;;8.20;3.50;;;;;;;11.51;39.35;99313.11;223524;184;138098;-67
2023/04/27 10:52:20;;;;;;;9.50;3.30;;;;;;;11.90;39.06;99307.92;223414;183;138835;-69
2023/04/27 10:57:23;;;;;;;7.90;3.40;;;;;;;12.42;37.92;99303.14;223579;183;146853;-67
2023/04/27 11:02:28;;;;;;;10.50;2.80;;;;;;;12.99;36.86;99304.84;223402;184;138339;-67
2023/04/27 11:07:32;;;;;;;8.90;4.00;;;;;;;13.46;35.68;99310.73;223536;184;137280;-67
2023/04/27 11:12:36;;;;;;;10.90;4.00;;;;;;;13.44;35.23;99318.40;223534;184;148081;-67
2023/04/27 11:17:40;;;;;;;9.50;4.00;;;;;;;13.04;35.80;99323.79;223656;184;140281;-67
2023/04/27 11:22:45;;;;;;;11.40;3.70;;;;;;;12.82;36.35;99325.95;223493;184;137500;-68
2023/04/27 11:27:48;;;;;;;5.80;3.40;;;;;;;12.78;36.58;99329.45;223563;183;147131;-67
2023/04/27 11:32:52;;;;;;;8.00;3.40;;;;;;;12.66;36.12;99334.47;223457;184;139163;-68
2023/04/27 11:37:58;;;;;;;11.20;4.10;;;;;;;12.60;36.27;99332.27;223550;183;137042;-68
2023/04/27 11:43:03;;;;;;;9.90;3.90;;;;;;;12.47;36.30;99338.41;223464;183;147661;-68
2023/04/27 11:48:12;;;;;;;8.90;3.70;;;;;;;12.33;36.43;99332.90;223487;184;154599;-68
2023/04/27 11:53:16;;;;;;;9.10;3.80;;;;;;;12.24;36.77;99330.98;223661;184;137004;-68
2023/04/27 11:58:22;;;;;;;8.90;4.00;;;;;;;12.23;36.94;99329.05;223449;184;147186;-68
2023/04/27 12:03:31;;;;;;;14.00;4.00;;;;;;;12.26;36.99;99325.52;223413;184;139905;-68
2023/04/27 12:08:34;;;;;;;11.20;3.90;;;;;;;12.55;37.37;99324.00;223487;184;137540;-68
2023/04/27 12:13:38;;;;;;;9.90;3.90;;;;;;;13.10;36.74;99317.33;223556;184;147052;-68
2023/04/27 12:18:41;;;;;;;9.60;3.90;;;;;;;13.08;36.49;99317.45;223505;184;138905;-68
2023/04/27 12:23:45;;;;;;;10.60;4.30;;;;;;;12.91;37.00;99315.23;223571;184;136899;-68
2023/04/27 12:28:49;;;;;;;9.90;4.90;;;;;;;12.73;37.31;99319.09;223596;184;149903;-68
2023/04/27 12:33:52;;;;;;;12.30;4.40;;;;;;;12.53;37.61;99319.84;223496;184;138778;-68
2023/04/27 12:39:13;;;;;;;11.50;3.90;;;;;;;12.42;37.87;99330.02;223522;184;137577;-66
2023/04/27 12:44:18;;;;;;;8.50;3.20;;;;;;;12.36;39.16;99330.08;223545;184;147411;-68
2023/04/27 12:49:22;;;;;;;7.10;3.20;;;;;;;12.30;39.73;99329.34;223397;184;138701;-68
2023/04/27 12:54:25;;;;;;;8.20;3.80;;;;;;;12.31;39.24;99328.91;223479;184;138036;-68
2023/04/27 12:59:28;;;;;;;7.40;3.30;;;;;;;12.33;38.54;99333.96;223527;184;147201;-68
2023/04/27 13:04:32;;;;;;;7.10;3.40;;;;;;;12.60;38.15;99326.20;223552;184;141064;-67
2023/04/27 13:09:36;;;;;;;6.30;3.10;;;;;;;13.35;38.01;99317.02;223611;183;137779;-67
2023/04/27 13:14:41;;;;;;;8.80;3.20;;;;;;;14.18;36.76;99313.11;223560;181;147317;-67
2023/04/27 13:19:44;;;;;;;10.30;3.70;;;;;;;14.65;35.14;99309.52;223486;184;138912;-69
2023/04/27 13:24:48;;;;;;;9.70;3.70;;;;;;;14.61;34.96;99307.00;223532;184;136877;-68
2023/04/27 13:29:52;;;;;;;13.90;7.40;;;;;;;14.42;35.06;99312.30;223182;184;147394;-68
2023/04/27 13:34:55;;;;;;;7.90;4.00;;;;;;;14.16;34.71;99318.27;223426;184;138408;-68
2023/04/27 13:39:58;;;;;;;6.20;3.30;;;;;;;13.81;34.85;99322.05;223520;180;137294;-67
2023/04/27 13:45:03;;;;;;;8.90;4.10;;;;;;;13.61;36.43;99320.59;223462;183;147197;-68
2023/04/27 13:50:09;;;;;;;5.40;3.40;;;;;;;13.41;36.97;99319.10;223506;184;153064;-67
2023/04/27 13:55:12;;;;;;;;;;;;;;;13.20;37.70;99327.10;222779;183;137827;-69
2023/04/27 14:00:17;;;;;;;10.20;3.30;;;;;;;13.00;38.15;99337.38;223476;184;148058;-70
2023/04/27 14:05:21;;;;;;;7.60;3.80;;;;;;;12.80;38.81;99338.92;223502;184;139388;-70
2023/04/27 14:10:25;;;;;;;7.20;3.70;;;;;;;12.63;39.78;99344.33;223426;184;137829;-70
2023/04/27 14:15:28;;;;;;;7.90;3.80;;;;;;;12.41;41.30;99342.52;223476;184;147744;-70
2023/04/27 14:20:43;;;;;;;7.80;3.70;;;;;;;12.28;40.24;99340.16;223426;183;139076;-68
2023/04/27 14:25:47;;;;;;;8.50;3.90;;;;;;;12.20;40.17;99347.08;223484;183;137505;-68
2023/04/27 14:30:50;;;;;;;8.70;3.70;;;;;;;12.14;40.34;99354.41;223517;184;147335;-68
2023/04/27 14:35:55;;;;;;;7.60;3.50;;;;;;;12.20;39.11;99355.66;223427;184;138859;-67
2023/04/27 14:40:58;;;;;;;5.30;3.00;;;;;;;12.30;38.66;99340.39;223521;184;137133;-68
2023/04/27 14:46:17;;;;;;;6.40;3.40;;;;;;;12.49;38.01;99339.15;223417;184;148673;-68
2023/04/27 14:51:24;;;;;;;6.30;3.10;;;;;;;12.60;37.35;99344.11;223378;184;139867;-68
2023/04/27 14:56:27;;;;;;;5.30;3.10;;;;;;;12.61;37.01;99346.92;223472;184;137927;-68
2023/04/27 15:01:31;;;;;;;7.60;3.30;;;;;;;12.59;36.49;99350.46;223599;184;147149;-67
2023/04/27 15:06:34;;;;;;;9.80;3.50;;;;;;;12.57;36.81;99348.07;223453;184;139105;-68
2023/04/27 15:11:38;;;;;;;8.40;3.50;;;;;;;12.50;36.82;99349.09;223443;184;137259;-67
2023/04/27 15:16:41;;;;;;;9.40;3.40;;;;;;;12.46;37.51;99354.30;223561;183;149196;-67
2023/04/27 15:21:44;;;;;;;8.60;3.20;;;;;;;12.63;37.15;99353.89;223398;184;138375;-69
2023/04/27 15:26:48;;;;;;;7.50;3.40;;;;;;;12.89;36.72;99355.57;223530;183;137073;-68
2023/04/27 15:37:43;;;;;;;7.70;3.60;;;;;;;13.21;35.91;99357.17;223484;183;139218;-68
2023/04/27 15:42:48;;;;;;;13.40;3.60;;;;;;;13.32;35.37;99352.73;223451;183;137232;-68
2023/04/27 15:47:51;;;;;;;6.90;3.20;;;;;;;13.42;34.87;99354.86;223523;183;147944;-67
2023/04/27 15:52:56;;;;;;;6.60;3.40;;;;;;;13.92;34.23;99354.99;223420;184;139755;-68
2023/04/27 15:57:59;;;;;;;7.30;3.50;;;;;;;14.50;33.58;99350.23;223585;183;138447;-68
2023/04/27 16:03:05;;;;;;;5.90;3.20;;;;;;;14.96;32.76;99347.08;223597;184;147533;-68
2023/04/27 16:08:12;;;;;;;6.30;3.50;;;;;;;15.10;32.38;99350.85;223394;184;140079;-68
2023/04/27 16:13:15;;;;;;;10.60;3.30;;;;;;;15.41;31.85;99350.80;223485;184;136892;-67
2023/04/27 16:18:18;;;;;;;66.50;52.20;;;;;;;15.59;31.84;99354.02;223559;183;148033;-67
2023/04/27 16:23:23;;;;;;;11.20;4.50;;;;;;;15.17;32.03;99351.66;223484;184;138624;-67
2023/04/27 16:28:26;;;;;;;7.30;3.50;;;;;;;14.75;32.72;99362.56;223545;183;137048;-64
2023/04/27 16:33:30;;;;;;;8.30;3.30;;;;;;;14.38;32.94;99363.61;223503;184;148489;-64
2023/04/27 16:38:33;;;;;;;6.10;3.70;;;;;;;14.19;33.42;99368.58;223426;184;139338;-65
2023/04/27 16:43:39;;;;;;;7.70;3.90;;;;;;;13.94;33.87;99370.00;223503;184;140375;-67
2023/04/27 16:48:43;;;;;;;9.40;4.80;;;;;;;13.69;34.28;99375.30;223520;184;148005;-66
2023/04/27 16:53:46;;;;;;;10.40;4.20;;;;;;;13.41;34.75;99380.58;223528;184;139161;-71
2023/04/27 16:58:50;;;;;;;10.30;4.20;;;;;;;13.21;35.40;99377.84;223511;184;137663;-77
2023/04/27 17:04:01;;;;;;;42.30;24.30;;;;;;;13.07;36.86;99379.86;223419;184;147049;-73
2023/04/27 17:09:06;;;;;;;7.00;4.10;;;;;;;12.96;36.64;99387.55;223477;184;139212;-72
2023/04/27 17:14:10;;;;;;;8.60;3.80;;;;;;;12.80;36.56;99387.70;223478;184;137249;-73
2023/04/27 17:19:20;;;;;;;9.10;4.10;;;;;;;12.69;37.05;99390.35;223424;184;147177;-72
2023/04/27 17:24:26;;;;;;;12.60;4.50;;;;;;;12.60;37.01;99387.07;223528;183;138797;-71
2023/04/27 17:29:30;;;;;;;15.90;5.00;;;;;;;12.50;37.24;99397.79;223395;184;137548;-72
2023/04/27 17:34:34;;;;;;;11.30;5.10;;;;;;;12.42;37.89;99397.28;223542;184;146913;-73
2023/04/27 17:46:09;;;;;;;14.20;4.70;;;;;;;12.14;39.26;99402.43;223602;183;138235;-73
2023/04/27 17:51:12;;;;;;;10.50;4.60;;;;;;;12.04;39.64;99408.38;223666;184;147666;-74
2023/04/27 17:56:15;;;;;;;13.20;4.70;;;;;;;11.93;39.82;99415.64;223567;184;138909;-74
2023/04/27 18:07:28;;;;;;;14.90;4.50;;;;;;;11.76;40.16;99424.87;223563;184;147373;-73
2023/04/27 18:12:33;;;;;;;15.10;5.60;;;;;;;11.59;41.94;99426.02;223516;184;138971;-72
2023/04/27 18:17:37;;;;;;;11.60;4.80;;;;;;;11.42;41.96;99430.43;223567;184;136982;-74
2023/04/27 18:22:46;;;;;;;13.40;5.30;;;;;;;11.35;41.98;99434.70;223540;184;149350;-72
2023/04/27 18:27:57;;;;;;;16.10;6.00;;;;;;;11.27;42.87;99439.64;223431;184;138248;-73
2023/04/27 18:33:01;;;;;;;11.00;5.20;;;;;;;11.17;44.34;99441.31;223434;184;137392;-73
2023/04/27 18:38:05;;;;;;;19.90;6.00;;;;;;;11.06;45.58;99446.18;223536;184;147890;-74
2023/04/27 18:43:08;;;;;;;18.30;5.10;;;;;;;10.97;44.67;99452.55;223448;184;139023;-73
2023/04/27 18:48:14;;;;;;;166.40;111.30;;;;;;;10.89;44.81;99455.85;223423;184;138273;-78
2023/04/27 18:53:26;;;;;;;17.00;8.70;;;;;;;10.92;45.59;99456.02;223439;183;147699;-73
2023/04/27 18:58:30;;;;;;;15.90;6.00;;;;;;;10.90;44.51;99459.14;223586;184;139496;-73
2023/04/27 19:03:33;;;;;;;10.70;5.50;;;;;;;10.80;44.79;99463.66;223312;184;137859;-73
2023/04/27 19:08:37;;;;;;;15.00;5.90;;;;;;;10.71;45.33;99463.66;223406;184;147198;-72
2023/04/27 19:13:42;;;;;;;18.10;6.00;;;;;;;10.61;46.29;99466.83;223414;184;139553;-73
2023/04/27 19:18:45;;;;;;;76.80;53.70;;;;;;;10.53;46.68;99469.45;223483;183;137967;-72
2023/04/27 19:23:49;;;;;;;18.00;8.60;;;;;;;10.45;46.83;99470.73;223470;184;147514;-72
2023/04/27 19:28:54;;;;;;;11.50;6.10;;;;;;;10.34;46.96;99477.02;223512;183;138825;-71
2023/04/27 19:33:59;;;;;;;15.00;6.90;;;;;;;10.19;47.48;99475.33;223463;184;136811;-73
2023/04/27 19:39:06;;;;;;;16.00;8.50;;;;;;;10.07;48.49;99473.63;223546;184;147859;-71
2023/04/27 19:44:09;;;;;;;25.00;9.50;;;;;;;9.99;49.17;99472.30;223358;184;139900;-73
2023/04/27 19:49:14;;;;;;;21.60;10.40;;;;;;;9.90;49.52;99471.36;223619;184;137016;-70
2023/04/27 19:54:18;;;;;;;25.10;11.10;;;;;;;9.77;49.95;99471.81;223393;183;147641;-71
2023/04/27 19:59:22;;;;;;;25.60;11.40;;;;;;;9.67;50.25;99469.69;223513;184;139325;-70
2023/04/27 20:04:27;;;;;;;24.80;11.50;;;;;;;9.57;50.47;99474.82;223500;184;137301;-72
2023/04/27 20:09:31;;;;;;;21.70;10.70;;;;;;;9.44;50.99;99475.45;223485;184;146958;-72
2023/04/27 20:14:36;;;;;;;23.30;11.70;;;;;;;9.33;51.59;99476.19;223512;184;138749;-71
2023/04/27 20:19:41;;;;;;;22.30;11.60;;;;;;;9.21;52.02;99479.06;223470;183;137572;-71
2023/04/27 20:24:44;;;;;;;22.50;12.60;;;;;;;9.14;52.44;99482.63;223427;183;147991;-71
2023/04/27 20:29:48;;;;;;;24.20;11.90;;;;;;;9.06;52.94;99492.77;223378;184;140421;-71
2023/04/27 20:34:52;;;;;;;30.40;12.80;;;;;;;8.95;53.17;99491.33;223471;184;136851;-72
2023/04/27 20:39:55;;;;;;;31.00;13.10;;;;;;;8.87;53.63;99495.99;223500;184;147361;-72
2023/04/27 20:44:58;;;;;;;25.70;13.10;;;;;;;8.74;53.82;99497.66;223514;184;138776;-72
2023/04/27 20:50:03;;;;;;;26.00;13.70;;;;;;;8.64;54.11;99500.25;223635;184;137122;-72
2023/04/27 20:55:06;;;;;;;28.40;13.10;;;;;;;8.53;54.59;99504.64;223638;184;147924;-73
2023/04/27 21:00:10;;;;;;;29.60;12.70;;;;;;;8.46;55.09;99508.33;223411;184;138759;-73
2023/04/27 21:05:13;;;;;;;28.10;14.00;;;;;;;8.36;55.19;99507.70;223540;184;137191;-72
2023/04/27 21:10:17;;;;;;;29.90;14.80;;;;;;;8.27;55.60;99508.79;223523;184;147945;-72
2023/04/27 21:15:20;;;;;;;27.00;14.30;;;;;;;8.17;55.09;99512.77;223557;183;138423;-72
2023/04/27 21:20:24;;;;;;;23.40;14.40;;;;;;;8.06;55.20;99510.96;223476;184;136809;-72
2023/04/27 21:25:27;;;;;;;29.80;15.40;;;;;;;7.99;55.50;99511.11;223599;184;148005;-73
2023/04/27 21:30:31;;;;;;;29.50;15.00;;;;;;;7.90;55.59;99513.42;223655;185;138995;-74
2023/04/27 21:35:35;;;;;;;24.00;14.40;;;;;;;7.85;55.67;99515.09;223542;184;137111;-71
2023/04/27 21:40:39;;;;;;;23.50;15.10;;;;;;;7.78;55.92;99515.88;223674;184;147207;-71
2023/04/27 21:45:43;;;;;;;30.70;14.40;;;;;;;7.72;56.18;99512.80;223413;184;138949;-70
2023/04/27 21:50:47;;;;;;;33.60;14.80;;;;;;;7.64;56.31;99517.73;223357;183;137657;-73
2023/04/27 21:55:50;;;;;;;20.90;14.10;;;;;;;7.54;56.28;99519.93;223252;184;147796;-71
2023/04/27 22:00:54;;;;;;;27.70;15.80;;;;;;;7.45;56.75;99516.42;223411;184;138458;-73
2023/04/27 22:05:58;;;;;;;27.20;14.70;;;;;;;7.38;56.91;99520.08;223464;184;137037;-73
2023/04/27 22:17:26;;;;;;;27.40;15.90;;;;;;;7.27;57.55;99528.41;223542;183;139019;-72
2023/04/27 22:22:30;;;;;;;29.00;15.70;;;;;;;7.25;57.68;99533.11;223532;183;137701;-72
2023/04/27 22:27:33;;;;;;;32.20;17.20;;;;;;;7.19;57.63;99538.46;223473;184;147030;-72
2023/04/27 22:32:46;;;;;;;35.40;17.30;;;;;;;7.10;57.92;99540.24;221618;184;139455;-74
2023/04/27 22:37:49;;;;;;;32.00;17.10;;;;;;;7.05;58.15;99538.88;223434;184;136579;-72
2023/04/27 22:42:54;;;;;;;31.40;17.20;;;;;;;6.95;58.08;99539.44;223463;183;147017;-72
2023/04/27 22:48:31;;;;;;;30.30;18.20;;;;;;;6.89;58.32;99543.90;223510;184;138501;-72
2023/04/27 22:53:35;;;;;;;33.30;18.30;;;;;;;6.83;58.14;99538.48;223545;184;136563;-72
2023/04/27 22:58:38;;;;;;;35.50;19.20;;;;;;;6.78;58.18;99533.73;223471;184;147951;-73
2023/04/27 23:03:42;;;;;;;33.80;19.20;;;;;;;6.78;58.63;99529.16;223469;184;138287;-71
2023/04/27 23:15:11;;;;;;;32.30;20.10;;;;;;;6.69;58.41;99522.11;223540;184;147540;-72
2023/04/27 23:20:14;;;;;;;36.50;20.70;;;;;;;6.60;58.41;99512.37;223514;184;138822;-71
2023/04/27 23:25:31;;;;;;;;;;;;;;;6.54;58.74;99514.02;223504;184;137018;-71
2023/04/27 23:30:35;;;;;;;31.20;18.70;;;;;;;6.52;59.19;99523.65;223642;183;147283;-71
2023/04/27 23:35:39;;;;;;;35.60;19.70;;;;;;;6.52;59.26;99527.14;222964;184;138906;-72
2023/04/27 23:40:42;;;;;;;33.20;19.40;;;;;;;6.55;59.80;99523.67;223450;184;137792;-70
2023/04/27 23:45:50;;;;;;;40.20;22.20;;;;;;;6.59;59.77;99518.61;223292;184;147856;-71
2023/04/27 23:51:03;;;;;;;38.10;22.60;;;;;;;6.67;59.21;99523.05;223503;180;138935;-71
2023/04/27 23:56:17;;;;;;;36.70;21.30;;;;;;;6.71;59.11;99535.23;222539;184;137387;-72
